sensor_id;sensor_type;location;lat;lon;timestamp;temperature;humidity
12303;DHT22;6214;48.012;7.862;2024-03-22T00:01:55;11.60;99.90
12303;DHT22;6214;48.012;7.862;2024-03-22T00:04:22;11.70;99.90
12303;DHT22;6214;48.012;7.862;2024-03-22T00:06:49;11.50;99.90
12303;DHT22;6214;48.012;7.862;2024-03-22T00:09:16;11.60;99.90
12303;DHT22;6214;48.012;7.862;2024-03-22T00:11:43;11.70;99.90
12303;DHT22;6214;48.012;7.862;2024-03-22T00:14:10;11.70;99.90
12303;DHT22;6214;48.012;7.862;2024-03-22T00:16:37;11.80;99.90
12303;DHT22;6214;48.012;7.862;2024-03-22T00:19:04;11.80;99.90
12303;DHT22;6214;48.012;7.862;2024-03-22T00:21:30;11.70;99.90
12303;DHT22;6214;48.012;7.862;2024-03-22T00:23:57;11.60;99.90
12303;DHT22;6214;48.012;7.862;2024-03-22T00:26:23;11.60;99.90
12303;DHT22;6214;48.012;7.862;2024-03-22T00:28:49;11.50;99.90
12303;DHT22;6214;48.012;7.862;2024-03-22T00:31:16;11.40;99.90
12303;DHT22;6214;48.012;7.862;2024-03-22T00:33:42;11.30;99.90
12303;DHT22;6214;48.012;7.862;2024-03-22T00:36:09;11.30;99.90
12303;DHT22;6214;48.012;7.862;2024-03-22T00:38:35;11.20;99.90
12303;DHT22;6214;48.012;7.862;2024-03-22T00:41:01;11.20;99.90
12303;DHT22;6214;48.012;7.862;2024-03-22T00:43:27;11.20;99.90
12303;DHT22;6214;48.012;7.862;2024-03-22T00:45:53;11.20;99.90
12303;DHT22;6214;48.012;7.862;2024-03-22T00:48:19;11.10;99.90
12303;DHT22;6214;48.012;7.862;2024-03-22T00:50:45;11.10;99.90
12303;DHT22;6214;48.012;7.862;2024-03-22T00:53:11;11.10;99.90
12303;DHT22;6214;48.012;7.862;2024-03-22T00:55:38;11.10;99.90
12303;DHT22;6214;48.012;7.862;2024-03-22T00:58:04;11.20;99.90
12303;DHT22;6214;48.012;7.862;2024-03-22T01:00:30;11.20;99.90
12303;DHT22;6214;48.012;7.862;2024-03-22T01:02:57;11.10;99.90
12303;DHT22;6214;48.012;7.862;2024-03-22T01:05:22;11.00;99.90
12303;DHT22;6214;48.012;7.862;2024-03-22T01:07:49;11.00;99.90
12303;DHT22;6214;48.012;7.862;2024-03-22T01:10:15;10.90;99.90
12303;DHT22;6214;48.012;7.862;2024-03-22T01:12:40;11.00;99.90
12303;DHT22;6214;48.012;7.862;2024-03-22T01:15:08;11.00;99.90
12303;DHT22;6214;48.012;7.862;2024-03-22T01:17:34;11.10;99.90
12303;DHT22;6214;48.012;7.862;2024-03-22T01:20:01;11.10;99.90
12303;DHT22;6214;48.012;7.862;2024-03-22T01:22:27;11.00;99.90
12303;DHT22;6214;48.012;7.862;2024-03-22T01:24:53;11.00;99.90
12303;DHT22;6214;48.012;7.862;2024-03-22T01:27:19;11.00;99.90
12303;DHT22;6214;48.012;7.862;2024-03-22T01:29:46;11.10;99.90
12303;DHT22;6214;48.012;7.862;2024-03-22T01:32:13;11.10;99.90
12303;DHT22;6214;48.012;7.862;2024-03-22T01:34:39;11.20;99.90
12303;DHT22;6214;48.012;7.862;2024-03-22T01:37:05;11.30;99.90
12303;DHT22;6214;48.012;7.862;2024-03-22T01:39:32;11.30;99.90
12303;DHT22;6214;48.012;7.862;2024-03-22T01:41:58;11.40;99.90
12303;DHT22;6214;48.012;7.862;2024-03-22T01:44:28;11.50;99.90
12303;DHT22;6214;48.012;7.862;2024-03-22T01:46:54;11.50;99.90
12303;DHT22;6214;48.012;7.862;2024-03-22T01:49:20;11.60;99.90
12303;DHT22;6214;48.012;7.862;2024-03-22T01:51:47;11.60;99.90
12303;DHT22;6214;48.012;7.862;2024-03-22T01:54:16;11.70;99.90
12303;DHT22;6214;48.012;7.862;2024-03-22T01:56:42;11.70;99.90
12303;DHT22;6214;48.012;7.862;2024-03-22T01:59:08;11.80;99.90
12303;DHT22;6214;48.012;7.862;2024-03-22T02:01:35;11.80;99.90
12303;DHT22;6214;48.012;7.862;2024-03-22T02:04:01;11.70;99.90
12303;DHT22;6214;48.012;7.862;2024-03-22T02:06:28;11.70;99.90
12303;DHT22;6214;48.012;7.862;2024-03-22T02:08:54;11.60;99.90
12303;DHT22;6214;48.012;7.862;2024-03-22T02:11:20;11.50;99.90
12303;DHT22;6214;48.012;7.862;2024-03-22T02:13:47;11.50;99.90
12303;DHT22;6214;48.012;7.862;2024-03-22T02:16:13;11.40;99.90
12303;DHT22;6214;48.012;7.862;2024-03-22T02:18:39;11.40;99.90
12303;DHT22;6214;48.012;7.862;2024-03-22T02:21:05;11.40;99.90
12303;DHT22;6214;48.012;7.862;2024-03-22T02:26:02;11.20;99.90
12303;DHT22;6214;48.012;7.862;2024-03-22T02:28:28;11.10;99.90
12303;DHT22;6214;48.012;7.862;2024-03-22T02:30:54;10.90;99.90
12303;DHT22;6214;48.012;7.862;2024-03-22T02:33:20;10.80;99.90
12303;DHT22;6214;48.012;7.862;2024-03-22T02:35:47;10.90;99.90
12303;DHT22;6214;48.012;7.862;2024-03-22T02:38:13;10.90;99.90
12303;DHT22;6214;48.012;7.862;2024-03-22T02:40:39;10.80;99.90
12303;DHT22;6214;48.012;7.862;2024-03-22T02:43:05;10.80;99.90
12303;DHT22;6214;48.012;7.862;2024-03-22T02:45:31;10.80;99.90
12303;DHT22;6214;48.012;7.862;2024-03-22T02:47:57;10.90;99.90
12303;DHT22;6214;48.012;7.862;2024-03-22T02:50:24;10.90;99.90
12303;DHT22;6214;48.012;7.862;2024-03-22T02:52:50;11.00;99.90
12303;DHT22;6214;48.012;7.862;2024-03-22T02:55:16;10.90;99.90
12303;DHT22;6214;48.012;7.862;2024-03-22T02:57:42;10.90;99.90
12303;DHT22;6214;48.012;7.862;2024-03-22T03:00:09;11.00;99.90
12303;DHT22;6214;48.012;7.862;2024-03-22T03:02:35;10.90;99.90
12303;DHT22;6214;48.012;7.862;2024-03-22T03:05:02;10.90;99.90
12303;DHT22;6214;48.012;7.862;2024-03-22T03:07:28;11.00;99.90
12303;DHT22;6214;48.012;7.862;2024-03-22T03:09:54;11.10;99.90
12303;DHT22;6214;48.012;7.862;2024-03-22T03:12:20;11.10;99.90
12303;DHT22;6214;48.012;7.862;2024-03-22T03:14:46;11.10;99.90
12303;DHT22;6214;48.012;7.862;2024-03-22T03:17:12;11.10;99.90
12303;DHT22;6214;48.012;7.862;2024-03-22T03:19:38;11.10;99.90
12303;DHT22;6214;48.012;7.862;2024-03-22T03:22:04;11.00;99.90
12303;DHT22;6214;48.012;7.862;2024-03-22T03:24:30;11.00;99.90
12303;DHT22;6214;48.012;7.862;2024-03-22T03:26:56;11.00;99.90
12303;DHT22;6214;48.012;7.862;2024-03-22T03:29:22;11.00;99.90
12303;DHT22;6214;48.012;7.862;2024-03-22T03:31:48;11.00;99.90
12303;DHT22;6214;48.012;7.862;2024-03-22T03:34:15;10.90;99.90
12303;DHT22;6214;48.012;7.862;2024-03-22T03:36:41;10.90;99.90
12303;DHT22;6214;48.012;7.862;2024-03-22T03:39:07;10.90;99.90
12303;DHT22;6214;48.012;7.862;2024-03-22T03:41:33;11.00;99.90
12303;DHT22;6214;48.012;7.862;2024-03-22T03:43:59;10.90;99.90
12303;DHT22;6214;48.012;7.862;2024-03-22T03:46:25;10.90;99.90
12303;DHT22;6214;48.012;7.862;2024-03-22T03:48:51;10.90;99.90
12303;DHT22;6214;48.012;7.862;2024-03-22T03:51:17;11.00;99.90
12303;DHT22;6214;48.012;7.862;2024-03-22T03:53:43;11.10;99.90
12303;DHT22;6214;48.012;7.862;2024-03-22T03:56:09;11.20;99.90
12303;DHT22;6214;48.012;7.862;2024-03-22T03:58:35;11.20;99.90
12303;DHT22;6214;48.012;7.862;2024-03-22T04:01:08;11.20;99.90
12303;DHT22;6214;48.012;7.862;2024-03-22T04:03:34;11.30;99.90
12303;DHT22;6214;48.012;7.862;2024-03-22T04:06:01;11.20;99.90
12303;DHT22;6214;48.012;7.862;2024-03-22T04:08:27;11.10;99.90
12303;DHT22;6214;48.012;7.862;2024-03-22T04:10:54;11.10;99.90
12303;DHT22;6214;48.012;7.862;2024-03-22T04:13:26;11.00;99.90
12303;DHT22;6214;48.012;7.862;2024-03-22T04:15:53;11.00;99.90
12303;DHT22;6214;48.012;7.862;2024-03-22T04:18:19;11.10;99.90
12303;DHT22;6214;48.012;7.862;2024-03-22T04:20:55;11.20;99.90
12303;DHT22;6214;48.012;7.862;2024-03-22T04:23:22;11.20;99.90
12303;DHT22;6214;48.012;7.862;2024-03-22T04:26:07;11.20;99.90
12303;DHT22;6214;48.012;7.862;2024-03-22T04:28:33;11.10;99.90
12303;DHT22;6214;48.012;7.862;2024-03-22T04:31:06;11.00;99.90
12303;DHT22;6214;48.012;7.862;2024-03-22T04:33:37;11.00;99.90
12303;DHT22;6214;48.012;7.862;2024-03-22T04:36:03;11.10;99.90
12303;DHT22;6214;48.012;7.862;2024-03-22T04:38:30;11.00;99.90
12303;DHT22;6214;48.012;7.862;2024-03-22T04:40:56;11.00;99.90
12303;DHT22;6214;48.012;7.862;2024-03-22T04:43:23;11.10;99.90
12303;DHT22;6214;48.012;7.862;2024-03-22T04:45:50;11.00;99.90
12303;DHT22;6214;48.012;7.862;2024-03-22T04:48:18;11.00;99.90
12303;DHT22;6214;48.012;7.862;2024-03-22T04:50:45;11.10;99.90
12303;DHT22;6214;48.012;7.862;2024-03-22T04:53:12;11.10;99.90
12303;DHT22;6214;48.012;7.862;2024-03-22T04:55:38;11.10;99.90
12303;DHT22;6214;48.012;7.862;2024-03-22T04:58:04;11.10;99.90
12303;DHT22;6214;48.012;7.862;2024-03-22T05:00:30;11.20;99.90
12303;DHT22;6214;48.012;7.862;2024-03-22T05:02:56;11.20;99.90
12303;DHT22;6214;48.012;7.862;2024-03-22T05:05:22;11.10;99.90
12303;DHT22;6214;48.012;7.862;2024-03-22T05:07:48;11.00;99.90
12303;DHT22;6214;48.012;7.862;2024-03-22T05:10:13;11.10;99.90
12303;DHT22;6214;48.012;7.862;2024-03-22T05:12:41;11.10;99.90
12303;DHT22;6214;48.012;7.862;2024-03-22T05:15:07;10.90;99.90
12303;DHT22;6214;48.012;7.862;2024-03-22T05:17:33;10.90;99.90
12303;DHT22;6214;48.012;7.862;2024-03-22T05:19:59;10.90;99.90
12303;DHT22;6214;48.012;7.862;2024-03-22T05:22:26;10.90;99.90
12303;DHT22;6214;48.012;7.862;2024-03-22T05:24:52;10.90;99.90
12303;DHT22;6214;48.012;7.862;2024-03-22T05:27:18;11.00;99.90
12303;DHT22;6214;48.012;7.862;2024-03-22T05:29:44;10.90;99.90
12303;DHT22;6214;48.012;7.862;2024-03-22T05:32:10;10.90;99.90
12303;DHT22;6214;48.012;7.862;2024-03-22T05:34:36;10.90;99.90
12303;DHT22;6214;48.012;7.862;2024-03-22T05:37:03;11.00;99.90
12303;DHT22;6214;48.012;7.862;2024-03-22T05:39:29;10.90;99.90
12303;DHT22;6214;48.012;7.862;2024-03-22T05:41:55;11.00;99.90
12303;DHT22;6214;48.012;7.862;2024-03-22T05:44:24;11.00;99.90
12303;DHT22;6214;48.012;7.862;2024-03-22T05:46:50;10.90;99.90
12303;DHT22;6214;48.012;7.862;2024-03-22T05:49:16;10.90;99.90
12303;DHT22;6214;48.012;7.862;2024-03-22T05:51:42;10.80;99.90
12303;DHT22;6214;48.012;7.862;2024-03-22T05:54:09;10.70;99.90
12303;DHT22;6214;48.012;7.862;2024-03-22T05:56:35;10.70;99.90
12303;DHT22;6214;48.012;7.862;2024-03-22T05:59:01;10.80;99.90
12303;DHT22;6214;48.012;7.862;2024-03-22T06:01:27;10.90;99.90
12303;DHT22;6214;48.012;7.862;2024-03-22T06:03:53;10.90;99.90
12303;DHT22;6214;48.012;7.862;2024-03-22T06:06:19;10.80;99.90
12303;DHT22;6214;48.012;7.862;2024-03-22T06:08:54;10.90;99.90
12303;DHT22;6214;48.012;7.862;2024-03-22T06:11:20;10.90;99.90
12303;DHT22;6214;48.012;7.862;2024-03-22T06:13:49;11.00;99.90
12303;DHT22;6214;48.012;7.862;2024-03-22T06:16:16;11.00;99.90
12303;DHT22;6214;48.012;7.862;2024-03-22T06:18:42;11.00;99.90
12303;DHT22;6214;48.012;7.862;2024-03-22T06:21:08;11.20;99.90
12303;DHT22;6214;48.012;7.862;2024-03-22T06:23:34;11.30;99.90
12303;DHT22;6214;48.012;7.862;2024-03-22T06:26:01;11.40;99.90
12303;DHT22;6214;48.012;7.862;2024-03-22T06:28:28;11.50;99.90
12303;DHT22;6214;48.012;7.862;2024-03-22T06:30:54;11.50;99.90
12303;DHT22;6214;48.012;7.862;2024-03-22T06:33:20;11.50;99.90
12303;DHT22;6214;48.012;7.862;2024-03-22T06:35:47;11.50;99.90
12303;DHT22;6214;48.012;7.862;2024-03-22T06:38:13;11.40;99.90
12303;DHT22;6214;48.012;7.862;2024-03-22T06:40:39;11.40;99.90
12303;DHT22;6214;48.012;7.862;2024-03-22T06:43:05;11.30;99.90
12303;DHT22;6214;48.012;7.862;2024-03-22T06:45:31;11.30;99.90
12303;DHT22;6214;48.012;7.862;2024-03-22T06:47:57;11.40;99.90
12303;DHT22;6214;48.012;7.862;2024-03-22T06:50:23;11.40;99.90
12303;DHT22;6214;48.012;7.862;2024-03-22T06:52:52;11.40;99.90
12303;DHT22;6214;48.012;7.862;2024-03-22T06:55:22;11.50;99.90
12303;DHT22;6214;48.012;7.862;2024-03-22T06:57:49;11.80;99.90
12303;DHT22;6214;48.012;7.862;2024-03-22T07:00:16;12.10;99.90
12303;DHT22;6214;48.012;7.862;2024-03-22T07:02:42;12.90;99.90
12303;DHT22;6214;48.012;7.862;2024-03-22T07:05:08;14.20;99.90
12303;DHT22;6214;48.012;7.862;2024-03-22T07:07:35;15.40;99.90
12303;DHT22;6214;48.012;7.862;2024-03-22T07:10:05;16.10;99.90
12303;DHT22;6214;48.012;7.862;2024-03-22T07:12:34;16.60;99.90
12303;DHT22;6214;48.012;7.862;2024-03-22T07:15:01;16.70;99.90
12303;DHT22;6214;48.012;7.862;2024-03-22T07:17:28;16.40;99.90
12303;DHT22;6214;48.012;7.862;2024-03-22T07:19:55;15.90;99.90
12303;DHT22;6214;48.012;7.862;2024-03-22T07:22:22;15.60;99.90
12303;DHT22;6214;48.012;7.862;2024-03-22T07:24:48;15.90;99.90
12303;DHT22;6214;48.012;7.862;2024-03-22T07:27:15;16.70;99.90
12303;DHT22;6214;48.012;7.862;2024-03-22T07:29:41;17.30;99.90
12303;DHT22;6214;48.012;7.862;2024-03-22T07:32:08;17.70;99.90
12303;DHT22;6214;48.012;7.862;2024-03-22T07:34:34;17.90;99.90
12303;DHT22;6214;48.012;7.862;2024-03-22T07:37:00;17.90;99.90
12303;DHT22;6214;48.012;7.862;2024-03-22T07:39:26;18.70;99.90
12303;DHT22;6214;48.012;7.862;2024-03-22T07:41:52;20.50;99.90
12303;DHT22;6214;48.012;7.862;2024-03-22T07:44:18;21.40;99.90
12303;DHT22;6214;48.012;7.862;2024-03-22T07:46:46;22.30;99.90
12303;DHT22;6214;48.012;7.862;2024-03-22T07:49:12;22.90;99.90
12303;DHT22;6214;48.012;7.862;2024-03-22T07:51:39;24.10;99.90
12303;DHT22;6214;48.012;7.862;2024-03-22T07:54:05;25.00;99.90
12303;DHT22;6214;48.012;7.862;2024-03-22T07:56:31;25.20;99.90
12303;DHT22;6214;48.012;7.862;2024-03-22T07:58:57;25.80;99.90
12303;DHT22;6214;48.012;7.862;2024-03-22T08:01:23;26.30;99.90
12303;DHT22;6214;48.012;7.862;2024-03-22T08:03:51;27.00;99.90
12303;DHT22;6214;48.012;7.862;2024-03-22T08:06:17;28.10;99.90
12303;DHT22;6214;48.012;7.862;2024-03-22T08:08:43;28.80;99.90
12303;DHT22;6214;48.012;7.862;2024-03-22T08:11:09;29.50;99.90
12303;DHT22;6214;48.012;7.862;2024-03-22T08:13:36;27.60;99.90
12303;DHT22;6214;48.012;7.862;2024-03-22T08:16:02;26.30;99.90
12303;DHT22;6214;48.012;7.862;2024-03-22T08:18:28;23.40;99.90
12303;DHT22;6214;48.012;7.862;2024-03-22T08:20:55;22.00;99.90
12303;DHT22;6214;48.012;7.862;2024-03-22T08:23:21;20.70;99.90
12303;DHT22;6214;48.012;7.862;2024-03-22T08:25:48;20.00;99.90
12303;DHT22;6214;48.012;7.862;2024-03-22T08:28:15;19.40;99.90
12303;DHT22;6214;48.012;7.862;2024-03-22T08:30:41;18.90;99.90
12303;DHT22;6214;48.012;7.862;2024-03-22T08:33:11;19.00;99.90
12303;DHT22;6214;48.012;7.862;2024-03-22T08:35:40;19.00;99.90
12303;DHT22;6214;48.012;7.862;2024-03-22T08:38:06;20.00;99.90
12303;DHT22;6214;48.012;7.862;2024-03-22T08:40:39;20.20;99.90
12303;DHT22;6214;48.012;7.862;2024-03-22T08:43:05;20.80;99.90
12303;DHT22;6214;48.012;7.862;2024-03-22T08:45:35;23.00;99.90
12303;DHT22;6214;48.012;7.862;2024-03-22T08:48:01;23.90;99.90
12303;DHT22;6214;48.012;7.862;2024-03-22T08:50:27;24.90;99.90
12303;DHT22;6214;48.012;7.862;2024-03-22T08:52:53;26.00;99.90
12303;DHT22;6214;48.012;7.862;2024-03-22T08:55:19;26.70;99.90
12303;DHT22;6214;48.012;7.862;2024-03-22T08:57:46;27.80;99.90
12303;DHT22;6214;48.012;7.862;2024-03-22T09:00:12;28.30;99.40
12303;DHT22;6214;48.012;7.862;2024-03-22T09:02:38;28.10;97.70
12303;DHT22;6214;48.012;7.862;2024-03-22T09:05:07;27.70;97.20
12303;DHT22;6214;48.012;7.862;2024-03-22T09:07:34;27.30;96.80
12303;DHT22;6214;48.012;7.862;2024-03-22T09:10:00;27.30;96.60
12303;DHT22;6214;48.012;7.862;2024-03-22T09:12:26;26.80;96.10
12303;DHT22;6214;48.012;7.862;2024-03-22T09:14:52;25.50;96.40
12303;DHT22;6214;48.012;7.862;2024-03-22T09:17:18;24.60;97.70
12303;DHT22;6214;48.012;7.862;2024-03-22T09:19:44;23.20;99.10
12303;DHT22;6214;48.012;7.862;2024-03-22T09:22:10;22.10;99.90
12303;DHT22;6214;48.012;7.862;2024-03-22T09:24:36;21.20;99.90
12303;DHT22;6214;48.012;7.862;2024-03-22T09:27:02;20.90;99.90
12303;DHT22;6214;48.012;7.862;2024-03-22T09:29:35;20.60;99.90
12303;DHT22;6214;48.012;7.862;2024-03-22T09:32:02;20.50;99.90
12303;DHT22;6214;48.012;7.862;2024-03-22T09:34:28;20.30;99.90
12303;DHT22;6214;48.012;7.862;2024-03-22T09:36:58;20.10;99.90
12303;DHT22;6214;48.012;7.862;2024-03-22T09:39:24;20.60;99.90
12303;DHT22;6214;48.012;7.862;2024-03-22T09:41:51;20.50;99.90
